Riviere-Saint-Jean, Canada
Current Conditions -  °F | °C
As of 5:00 PM on Wednesday 28 Jan 2015 (Local Time) from CYGV Reporting Station
Broken Clouds Broken Clouds  
Wind Chill: -4°   Ceiling: 13000
Heat Index:   Visibility: 9mi
Dew Point:   Wind: 8mph
Humidity: 79%   Direction: 350°N
Pressure: 29.89"   Gusts: NA
Location:  50.28°N, 64.33°W
Report Text: CYGV 282200Z AUTO 35007KT 9SM BKN130 M13/M16 A2989 RMK SLP127
Loading
Personal Weather Stations






























Interactive Weather Map New forecast layout! Learn more

10-Day Weather Forecast

Advertisements
Track Severe Weather on mobile